sensor_id;sensor_type;location;lat;lon;timestamp;pressure;altitude;pressure_sealevel;temperature;humidity
74613;BME280;63119;51.788;8.824;2023-06-24T00:01:16;100908.56;;;16.07;78.89
74613;BME280;63119;51.788;8.824;2023-06-24T00:03:42;100912.81;;;16.10;78.84
74613;BME280;63119;51.788;8.824;2023-06-24T00:06:12;100909.03;;;16.01;79.30
74613;BME280;63119;51.788;8.824;2023-06-24T00:08:40;100913.53;;;16.01;79.53
74613;BME280;63119;51.788;8.824;2023-06-24T00:11:05;100905.25;;;15.93;80.20
74613;BME280;63119;51.788;8.824;2023-06-24T00:13:30;100916.00;;;15.80;82.10
74613;BME280;63119;51.788;8.824;2023-06-24T00:15:56;100910.53;;;15.81;81.16
74613;BME280;63119;51.788;8.824;2023-06-24T00:18:21;100919.63;;;15.79;81.54
74613;BME280;63119;51.788;8.824;2023-06-24T00:20:49;100919.63;;;15.79;80.87
74613;BME280;63119;51.788;8.824;2023-06-24T00:23:17;100927.13;;;15.74;81.62
74613;BME280;63119;51.788;8.824;2023-06-24T00:25:49;100923.31;;;15.65;81.43
74613;BME280;63119;51.788;8.824;2023-06-24T00:28:15;100916.09;;;15.55;81.89
74613;BME280;63119;51.788;8.824;2023-06-24T00:30:40;100921.22;;;15.58;81.40
74613;BME280;63119;51.788;8.824;2023-06-24T00:33:05;100918.53;;;15.58;82.05
74613;BME280;63119;51.788;8.824;2023-06-24T00:35:34;100914.50;;;15.52;81.31
74613;BME280;63119;51.788;8.824;2023-06-24T00:37:59;100915.59;;;15.50;81.27
74613;BME280;63119;51.788;8.824;2023-06-24T00:40:24;100905.03;;;15.36;81.92
74613;BME280;63119;51.788;8.824;2023-06-24T00:42:49;100922.53;;;15.40;81.68
74613;BME280;63119;51.788;8.824;2023-06-24T00:45:15;100916.56;;;15.36;81.49
74613;BME280;63119;51.788;8.824;2023-06-24T00:47:43;100919.56;;;15.31;81.63
74613;BME280;63119;51.788;8.824;2023-06-24T00:50:08;100920.19;;;15.35;81.71
74613;BME280;63119;51.788;8.824;2023-06-24T00:52:37;100919.81;;;15.28;82.06
74613;BME280;63119;51.788;8.824;2023-06-24T00:55:07;100925.78;;;15.19;81.81
74613;BME280;63119;51.788;8.824;2023-06-24T00:57:32;100920.69;;;15.16;82.27
74613;BME280;63119;51.788;8.824;2023-06-24T00:59:59;100920.25;;;15.22;81.87
74613;BME280;63119;51.788;8.824;2023-06-24T01:02:24;100924.28;;;15.28;81.55
74613;BME280;63119;51.788;8.824;2023-06-24T01:04:52;100931.34;;;15.16;81.80
74613;BME280;63119;51.788;8.824;2023-06-24T01:07:18;100919.59;;;15.19;81.37
74613;BME280;63119;51.788;8.824;2023-06-24T01:09:43;100913.41;;;15.18;81.53
74613;BME280;63119;51.788;8.824;2023-06-24T01:12:09;100921.78;;;15.01;82.38
74613;BME280;63119;51.788;8.824;2023-06-24T01:14:35;100922.59;;;15.14;81.68
74613;BME280;63119;51.788;8.824;2023-06-24T01:17:08;100919.38;;;15.22;81.24
74613;BME280;63119;51.788;8.824;2023-06-24T01:20:10;100919.38;;;15.22;81.41
74613;BME280;63119;51.788;8.824;2023-06-24T01:23:07;100921.34;;;15.07;82.60
74613;BME280;63119;51.788;8.824;2023-06-24T01:25:59;100924.75;;;15.09;82.19
74613;BME280;63119;51.788;8.824;2023-06-24T01:28:46;100922.28;;;15.06;81.96
74613;BME280;63119;51.788;8.824;2023-06-24T01:31:31;100920.47;;;15.19;82.02
74613;BME280;63119;51.788;8.824;2023-06-24T01:36:38;100919.84;;;15.03;81.90
74613;BME280;63119;51.788;8.824;2023-06-24T01:39:08;100938.94;;;14.97;82.19
74613;BME280;63119;51.788;8.824;2023-06-24T01:41:41;100926.06;;;14.91;82.68
74613;BME280;63119;51.788;8.824;2023-06-24T01:44:13;100932.47;;;14.76;83.65
74613;BME280;63119;51.788;8.824;2023-06-24T01:46:40;100920.84;;;14.77;83.50
74613;BME280;63119;51.788;8.824;2023-06-24T01:49:07;100918.50;;;14.72;83.24
74613;BME280;63119;51.788;8.824;2023-06-24T01:51:34;100919.66;;;14.68;83.91
74613;BME280;63119;51.788;8.824;2023-06-24T01:54:04;100924.47;;;14.63;84.11
74613;BME280;63119;51.788;8.824;2023-06-24T01:56:31;100916.69;;;14.73;83.87
74613;BME280;63119;51.788;8.824;2023-06-24T01:59:00;100915.84;;;14.72;83.65
74613;BME280;63119;51.788;8.824;2023-06-24T02:01:27;100916.25;;;14.66;84.08
74613;BME280;63119;51.788;8.824;2023-06-24T02:03:54;100914.38;;;14.56;84.60
74613;BME280;63119;51.788;8.824;2023-06-24T02:06:22;100920.72;;;14.53;84.90
74613;BME280;63119;51.788;8.824;2023-06-24T02:08:48;100921.16;;;14.60;84.41
74613;BME280;63119;51.788;8.824;2023-06-24T02:11:16;100925.31;;;14.51;84.76
74613;BME280;63119;51.788;8.824;2023-06-24T02:13:42;100931.41;;;14.41;85.27
74613;BME280;63119;51.788;8.824;2023-06-24T02:16:09;100922.88;;;14.61;84.30
74613;BME280;63119;51.788;8.824;2023-06-24T02:18:37;100922.88;;;14.61;84.13
74613;BME280;63119;51.788;8.824;2023-06-24T02:21:03;100918.94;;;14.54;84.64
74613;BME280;63119;51.788;8.824;2023-06-24T02:23:29;100924.03;;;14.44;84.81
74613;BME280;63119;51.788;8.824;2023-06-24T02:25:55;100917.03;;;14.56;84.42
74613;BME280;63119;51.788;8.824;2023-06-24T02:28:21;100910.28;;;14.50;84.50
74613;BME280;63119;51.788;8.824;2023-06-24T02:30:47;100911.91;;;14.53;84.20
74613;BME280;63119;51.788;8.824;2023-06-24T02:33:14;100915.63;;;14.50;84.18
74613;BME280;63119;51.788;8.824;2023-06-24T02:35:39;100914.59;;;14.53;84.25
74613;BME280;63119;51.788;8.824;2023-06-24T02:38:07;100907.75;;;14.49;84.66
74613;BME280;63119;51.788;8.824;2023-06-24T02:40:32;100905.38;;;14.44;84.38
74613;BME280;63119;51.788;8.824;2023-06-24T02:42:58;100911.78;;;14.42;84.87
74613;BME280;63119;51.788;8.824;2023-06-24T02:45:23;100912.13;;;14.50;83.91
74613;BME280;63119;51.788;8.824;2023-06-24T02:47:49;100910.63;;;14.46;84.34
74613;BME280;63119;51.788;8.824;2023-06-24T02:50:15;100922.56;;;14.40;84.58
74613;BME280;63119;51.788;8.824;2023-06-24T02:52:42;100932.22;;;14.29;85.05
74613;BME280;63119;51.788;8.824;2023-06-24T02:55:08;100924.78;;;14.34;84.68
74613;BME280;63119;51.788;8.824;2023-06-24T02:57:34;100924.31;;;14.27;84.90
74613;BME280;63119;51.788;8.824;2023-06-24T03:00:02;100931.78;;;14.22;85.83
74613;BME280;63119;51.788;8.824;2023-06-24T03:02:30;100935.09;;;14.26;85.19
74613;BME280;63119;51.788;8.824;2023-06-24T03:04:56;100925.91;;;14.30;85.18
74613;BME280;63119;51.788;8.824;2023-06-24T03:07:23;100929.75;;;14.26;85.21
74613;BME280;63119;51.788;8.824;2023-06-24T03:09:49;100930.50;;;14.28;85.08
74613;BME280;63119;51.788;8.824;2023-06-24T03:12:15;100927.31;;;14.35;85.00
74613;BME280;63119;51.788;8.824;2023-06-24T03:14:41;100931.19;;;14.44;84.17
74613;BME280;63119;51.788;8.824;2023-06-24T03:17:06;100928.75;;;14.41;84.42
74613;BME280;63119;51.788;8.824;2023-06-24T03:19:31;100934.16;;;14.52;84.93
74613;BME280;63119;51.788;8.824;2023-06-24T03:21:56;100933.63;;;14.72;84.37
74613;BME280;63119;51.788;8.824;2023-06-24T03:24:22;100931.94;;;14.58;82.96
74613;BME280;63119;51.788;8.824;2023-06-24T03:26:47;100938.84;;;14.36;84.69
74613;BME280;63119;51.788;8.824;2023-06-24T03:29:13;100937.56;;;14.54;84.03
74613;BME280;63119;51.788;8.824;2023-06-24T03:31:38;100941.50;;;14.48;84.02
74613;BME280;63119;51.788;8.824;2023-06-24T03:34:09;100942.78;;;14.43;84.54
74613;BME280;63119;51.788;8.824;2023-06-24T03:36:34;100943.88;;;14.40;84.37
74613;BME280;63119;51.788;8.824;2023-06-24T03:38:59;100944.53;;;14.30;84.49
74613;BME280;63119;51.788;8.824;2023-06-24T03:41:25;100946.47;;;14.28;85.21
74613;BME280;63119;51.788;8.824;2023-06-24T03:43:51;100948.75;;;14.34;84.71
74613;BME280;63119;51.788;8.824;2023-06-24T03:46:16;100948.97;;;14.43;84.49
74613;BME280;63119;51.788;8.824;2023-06-24T03:48:42;100944.59;;;14.42;84.56
74613;BME280;63119;51.788;8.824;2023-06-24T03:51:08;100946.13;;;14.59;84.31
74613;BME280;63119;51.788;8.824;2023-06-24T03:53:33;100940.16;;;14.68;83.54
74613;BME280;63119;51.788;8.824;2023-06-24T03:55:58;100942.69;;;14.57;84.38
74613;BME280;63119;51.788;8.824;2023-06-24T03:58:24;100942.25;;;14.63;84.04
74613;BME280;63119;51.788;8.824;2023-06-24T04:00:49;100939.06;;;14.83;84.62
74613;BME280;63119;51.788;8.824;2023-06-24T04:03:15;100944.06;;;15.00;83.53
74613;BME280;63119;51.788;8.824;2023-06-24T04:05:43;100943.41;;;14.97;82.52
74613;BME280;63119;51.788;8.824;2023-06-24T04:08:09;100945.56;;;14.92;82.98
74613;BME280;63119;51.788;8.824;2023-06-24T04:10:34;100944.78;;;15.15;82.17
74613;BME280;63119;51.788;8.824;2023-06-24T04:12:59;100945.81;;;15.25;81.77
74613;BME280;63119;51.788;8.824;2023-06-24T04:15:25;100935.94;;;15.38;82.13
74613;BME280;63119;51.788;8.824;2023-06-24T04:17:50;100937.59;;;15.28;82.12
74613;BME280;63119;51.788;8.824;2023-06-24T04:20:15;100938.06;;;15.46;81.74
74613;BME280;63119;51.788;8.824;2023-06-24T04:22:41;100944.91;;;15.62;81.60
74613;BME280;63119;51.788;8.824;2023-06-24T04:25:07;100938.78;;;15.84;80.13
74613;BME280;63119;51.788;8.824;2023-06-24T04:27:33;100942.03;;;16.00;79.33
74613;BME280;63119;51.788;8.824;2023-06-24T04:30:02;100935.31;;;16.29;79.04
74613;BME280;63119;51.788;8.824;2023-06-24T04:32:27;100943.94;;;16.68;78.15
74613;BME280;63119;51.788;8.824;2023-06-24T04:34:52;100941.19;;;16.80;77.11
74613;BME280;63119;51.788;8.824;2023-06-24T04:37:18;100938.75;;;17.11;76.37
74613;BME280;63119;51.788;8.824;2023-06-24T04:39:43;100934.22;;;17.22;76.10
74613;BME280;63119;51.788;8.824;2023-06-24T04:42:09;100941.41;;;17.22;75.82
74613;BME280;63119;51.788;8.824;2023-06-24T04:44:35;100937.59;;;17.46;74.86
74613;BME280;63119;51.788;8.824;2023-06-24T04:47:00;100942.53;;;17.73;74.06
74613;BME280;63119;51.788;8.824;2023-06-24T04:49:25;100943.16;;;17.77;73.90
74613;BME280;63119;51.788;8.824;2023-06-24T04:51:51;100937.06;;;17.75;73.44
74613;BME280;63119;51.788;8.824;2023-06-24T04:54:16;100937.78;;;17.77;73.71
74613;BME280;63119;51.788;8.824;2023-06-24T04:56:42;100943.88;;;18.11;73.11
74613;BME280;63119;51.788;8.824;2023-06-24T04:59:08;100942.50;;;18.37;73.18
74613;BME280;63119;51.788;8.824;2023-06-24T05:01:33;100948.22;;;18.64;71.77
74613;BME280;63119;51.788;8.824;2023-06-24T05:03:58;100946.28;;;18.96;70.18
74613;BME280;63119;51.788;8.824;2023-06-24T05:06:23;100945.16;;;18.99;70.39
74613;BME280;63119;51.788;8.824;2023-06-24T05:08:49;100939.31;;;18.94;69.57
74613;BME280;63119;51.788;8.824;2023-06-24T05:11:14;100948.91;;;19.17;69.65
74613;BME280;63119;51.788;8.824;2023-06-24T05:13:40;100958.03;;;19.05;70.11
74613;BME280;63119;51.788;8.824;2023-06-24T05:16:05;100960.78;;;19.54;69.95
74613;BME280;63119;51.788;8.824;2023-06-24T05:18:30;100960.25;;;19.89;68.34
74613;BME280;63119;51.788;8.824;2023-06-24T05:20:56;100966.78;;;20.15;66.86
74613;BME280;63119;51.788;8.824;2023-06-24T05:23:21;100960.84;;;20.31;66.77
74613;BME280;63119;51.788;8.824;2023-06-24T05:25:46;100969.50;;;20.44;66.18
74613;BME280;63119;51.788;8.824;2023-06-24T05:28:11;100960.97;;;20.58;66.27
74613;BME280;63119;51.788;8.824;2023-06-24T05:30:37;100974.25;;;20.22;66.43
74613;BME280;63119;51.788;8.824;2023-06-24T05:33:02;100969.47;;;20.06;66.63
74613;BME280;63119;51.788;8.824;2023-06-24T05:35:28;100961.56;;;20.43;66.62
74613;BME280;63119;51.788;8.824;2023-06-24T05:37:53;100968.34;;;20.18;67.13
74613;BME280;63119;51.788;8.824;2023-06-24T05:40:18;100966.47;;;20.76;66.10
74613;BME280;63119;51.788;8.824;2023-06-24T05:42:44;100959.56;;;21.01;65.58
74613;BME280;63119;51.788;8.824;2023-06-24T05:45:09;100955.78;;;20.94;64.66
74613;BME280;63119;51.788;8.824;2023-06-24T05:47:34;100961.91;;;20.77;65.81
74613;BME280;63119;51.788;8.824;2023-06-24T05:50:00;100961.25;;;20.55;65.69
74613;BME280;63119;51.788;8.824;2023-06-24T05:52:25;100963.94;;;20.65;64.94
74613;BME280;63119;51.788;8.824;2023-06-24T05:54:50;100958.88;;;20.99;63.98
74613;BME280;63119;51.788;8.824;2023-06-24T05:57:16;100948.25;;;21.61;62.69
74613;BME280;63119;51.788;8.824;2023-06-24T05:59:41;100951.63;;;21.91;62.59
74613;BME280;63119;51.788;8.824;2023-06-24T06:02:06;100968.09;;;22.23;61.92
74613;BME280;63119;51.788;8.824;2023-06-24T06:04:32;100959.88;;;22.24;60.09
74613;BME280;63119;51.788;8.824;2023-06-24T06:06:57;100958.41;;;22.56;59.12
74613;BME280;63119;51.788;8.824;2023-06-24T06:09:22;100962.97;;;22.73;57.53
74613;BME280;63119;51.788;8.824;2023-06-24T06:11:48;100966.00;;;22.70;58.29
74613;BME280;63119;51.788;8.824;2023-06-24T06:14:13;100962.69;;;22.58;57.34
74613;BME280;63119;51.788;8.824;2023-06-24T06:16:39;100957.53;;;22.47;58.51
74613;BME280;63119;51.788;8.824;2023-06-24T06:19:04;100960.97;;;22.75;58.47
74613;BME280;63119;51.788;8.824;2023-06-24T06:21:29;100958.63;;;23.06;57.69
74613;BME280;63119;51.788;8.824;2023-06-24T06:23:55;100961.97;;;23.00;56.46
74613;BME280;63119;51.788;8.824;2023-06-24T06:26:20;100963.25;;;23.55;55.85
74613;BME280;63119;51.788;8.824;2023-06-24T06:28:46;100965.00;;;23.05;54.68
74613;BME280;63119;51.788;8.824;2023-06-24T06:31:12;100969.97;;;23.17;54.96
74613;BME280;63119;51.788;8.824;2023-06-24T06:33:38;100968.28;;;22.82;55.11
74613;BME280;63119;51.788;8.824;2023-06-24T06:36:03;100968.28;;;23.16;55.10
74613;BME280;63119;51.788;8.824;2023-06-24T06:38:28;100970.53;;;23.55;54.27
74613;BME280;63119;51.788;8.824;2023-06-24T06:40:54;100966.50;;;23.67;54.39
74613;BME280;63119;51.788;8.824;2023-06-24T06:43:19;100968.09;;;23.93;53.09
74613;BME280;63119;51.788;8.824;2023-06-24T06:45:44;100972.25;;;23.38;53.09
74613;BME280;63119;51.788;8.824;2023-06-24T06:48:09;100969.00;;;23.52;53.40
74613;BME280;63119;51.788;8.824;2023-06-24T06:50:35;100970.31;;;24.06;52.15
74613;BME280;63119;51.788;8.824;2023-06-24T06:53:00;100967.47;;;24.16;51.57
74613;BME280;63119;51.788;8.824;2023-06-24T06:55:26;100969.59;;;23.88;52.74
74613;BME280;63119;51.788;8.824;2023-06-24T06:57:52;100966.72;;;23.81;52.21
74613;BME280;63119;51.788;8.824;2023-06-24T07:00:18;100963.75;;;24.49;52.69
74613;BME280;63119;51.788;8.824;2023-06-24T07:02:43;100968.31;;;24.65;51.05
74613;BME280;63119;51.788;8.824;2023-06-24T07:05:08;100973.06;;;24.71;50.12
74613;BME280;63119;51.788;8.824;2023-06-24T07:07:36;100966.09;;;24.84;49.19
74613;BME280;63119;51.788;8.824;2023-06-24T07:10:01;100971.72;;;24.34;49.90
74613;BME280;63119;51.788;8.824;2023-06-24T07:12:26;100966.81;;;24.86;49.67
74613;BME280;63119;51.788;8.824;2023-06-24T07:14:51;100967.81;;;25.32;49.73
74613;BME280;63119;51.788;8.824;2023-06-24T07:17:17;100969.28;;;25.04;49.54
74613;BME280;63119;51.788;8.824;2023-06-24T07:19:42;100970.66;;;25.47;49.12
74613;BME280;63119;51.788;8.824;2023-06-24T07:22:07;100972.63;;;25.22;48.45
74613;BME280;63119;51.788;8.824;2023-06-24T07:24:33;100971.38;;;25.41;49.29
74613;BME280;63119;51.788;8.824;2023-06-24T07:26:58;100968.06;;;25.15;47.98
74613;BME280;63119;51.788;8.824;2023-06-24T07:29:23;100969.72;;;25.24;49.03
74613;BME280;63119;51.788;8.824;2023-06-24T07:31:48;100965.88;;;25.57;48.23
74613;BME280;63119;51.788;8.824;2023-06-24T07:34:14;100964.06;;;25.80;47.41
74613;BME280;63119;51.788;8.824;2023-06-24T07:36:39;100963.28;;;26.25;46.04
74613;BME280;63119;51.788;8.824;2023-06-24T07:39:04;100957.41;;;26.14;46.51
74613;BME280;63119;51.788;8.824;2023-06-24T07:41:31;100955.81;;;25.74;46.41
74613;BME280;63119;51.788;8.824;2023-06-24T07:43:57;100963.59;;;25.99;46.20
74613;BME280;63119;51.788;8.824;2023-06-24T07:46:22;100952.03;;;26.05;47.57
74613;BME280;63119;51.788;8.824;2023-06-24T07:48:47;100961.94;;;26.44;46.25
74613;BME280;63119;51.788;8.824;2023-06-24T07:51:12;100964.13;;;26.63;44.29
74613;BME280;63119;51.788;8.824;2023-06-24T07:53:38;100971.13;;;26.57;45.51
74613;BME280;63119;51.788;8.824;2023-06-24T07:56:03;100963.97;;;26.79;45.01
74613;BME280;63119;51.788;8.824;2023-06-24T07:58:28;100966.66;;;26.65;43.92
74613;BME280;63119;51.788;8.824;2023-06-24T08:00:54;100966.69;;;26.42;44.21
74613;BME280;63119;51.788;8.824;2023-06-24T08:03:19;100967.88;;;26.62;44.51
74613;BME280;63119;51.788;8.824;2023-06-24T08:05:44;100965.56;;;26.74;43.40
74613;BME280;63119;51.788;8.824;2023-06-24T08:08:09;100963.91;;;26.87;44.42
74613;BME280;63119;51.788;8.824;2023-06-24T08:10:35;100966.69;;;26.79;42.53
74613;BME280;63119;51.788;8.824;2023-06-24T08:13:00;100967.22;;;27.12;41.37
74613;BME280;63119;51.788;8.824;2023-06-24T08:15:25;100968.81;;;27.36;41.70
74613;BME280;63119;51.788;8.824;2023-06-24T08:17:54;100957.34;;;27.40;41.89
74613;BME280;63119;51.788;8.824;2023-06-24T08:20:23;100961.59;;;27.43;41.38
74613;BME280;63119;51.788;8.824;2023-06-24T08:22:49;100966.75;;;27.52;42.45
74613;BME280;63119;51.788;8.824;2023-06-24T08:25:14;100960.94;;;27.41;42.08
74613;BME280;63119;51.788;8.824;2023-06-24T08:27:40;100968.81;;;27.50;42.80
74613;BME280;63119;51.788;8.824;2023-06-24T08:30:06;100963.38;;;27.50;41.64
74613;BME280;63119;51.788;8.824;2023-06-24T08:32:32;100961.41;;;27.30;42.44
74613;BME280;63119;51.788;8.824;2023-06-24T08:34:57;100955.31;;;27.42;42.25
74613;BME280;63119;51.788;8.824;2023-06-24T08:37:22;100966.84;;;27.59;43.55
74613;BME280;63119;51.788;8.824;2023-06-24T08:39:47;100969.19;;;27.62;44.54
74613;BME280;63119;51.788;8.824;2023-06-24T08:42:13;100958.75;;;28.01;42.25
74613;BME280;63119;51.788;8.824;2023-06-24T08:44:38;100964.56;;;27.98;41.54
74613;BME280;63119;51.788;8.824;2023-06-24T08:47:04;100956.47;;;27.84;41.73
74613;BME280;63119;51.788;8.824;2023-06-24T08:49:30;100956.78;;;27.74;42.10
74613;BME280;63119;51.788;8.824;2023-06-24T08:52:02;100958.03;;;27.93;42.79
74613;BME280;63119;51.788;8.824;2023-06-24T08:54:30;100955.91;;;28.09;41.40
74613;BME280;63119;51.788;8.824;2023-06-24T08:56:57;100962.22;;;27.74;40.80
74613;BME280;63119;51.788;8.824;2023-06-24T08:59:23;100957.63;;;27.96;41.73
74613;BME280;63119;51.788;8.824;2023-06-24T09:01:49;100950.03;;;27.91;42.30
74613;BME280;63119;51.788;8.824;2023-06-24T09:04:15;100942.31;;;28.09;42.02
74613;BME280;63119;51.788;8.824;2023-06-24T09:06:40;100949.97;;;28.20;40.49
74613;BME280;63119;51.788;8.824;2023-06-24T09:09:17;100947.88;;;28.23;39.83
74613;BME280;63119;51.788;8.824;2023-06-24T09:11:50;100946.00;;;27.37;39.92
74613;BME280;63119;51.788;8.824;2023-06-24T09:14:16;100946.50;;;27.55;40.02
74613;BME280;63119;51.788;8.824;2023-06-24T09:16:41;100940.63;;;27.73;39.39
74613;BME280;63119;51.788;8.824;2023-06-24T09:19:06;100936.63;;;28.04;39.81
74613;BME280;63119;51.788;8.824;2023-06-24T09:21:31;100933.66;;;28.20;39.14
74613;BME280;63119;51.788;8.824;2023-06-24T09:23:58;100942.97;;;27.97;39.50
74613;BME280;63119;51.788;8.824;2023-06-24T09:26:27;100933.19;;;28.17;39.91
74613;BME280;63119;51.788;8.824;2023-06-24T09:28:54;100934.75;;;28.05;38.38
74613;BME280;63119;51.788;8.824;2023-06-24T09:31:20;100934.34;;;28.08;39.58
74613;BME280;63119;51.788;8.824;2023-06-24T09:33:46;100935.19;;;28.08;39.47
74613;BME280;63119;51.788;8.824;2023-06-24T09:36:13;100916.13;;;28.30;39.01
74613;BME280;63119;51.788;8.824;2023-06-24T09:38:41;100915.00;;;28.24;39.70
74613;BME280;63119;51.788;8.824;2023-06-24T09:41:06;100925.47;;;28.20;40.32
74613;BME280;63119;51.788;8.824;2023-06-24T09:43:36;100925.94;;;28.52;39.16
74613;BME280;63119;51.788;8.824;2023-06-24T09:46:02;100926.66;;;28.60;39.06
74613;BME280;63119;51.788;8.824;2023-06-24T09:48:28;100921.59;;;28.36;38.93
74613;BME280;63119;51.788;8.824;2023-06-24T09:50:59;100919.06;;;28.07;39.06
74613;BME280;63119;51.788;8.824;2023-06-24T09:53:28;100912.16;;;28.32;39.66
74613;BME280;63119;51.788;8.824;2023-06-24T09:55:55;100920.47;;;28.52;40.42
74613;BME280;63119;51.788;8.824;2023-06-24T09:58:21;100917.38;;;28.55;40.23
74613;BME280;63119;51.788;8.824;2023-06-24T10:00:48;100921.34;;;28.52;39.39
74613;BME280;63119;51.788;8.824;2023-06-24T10:03:14;100913.59;;;28.77;38.20
74613;BME280;63119;51.788;8.824;2023-06-24T10:05:40;100909.47;;;28.94;39.20
74613;BME280;63119;51.788;8.824;2023-06-24T10:08:06;100905.31;;;28.98;38.98
74613;BME280;63119;51.788;8.824;2023-06-24T10:10:32;100899.00;;;28.91;38.73
74613;BME280;63119;51.788;8.824;2023-06-24T10:12:57;100895.75;;;29.09;38.90
74613;BME280;63119;51.788;8.824;2023-06-24T10:15:22;100901.44;;;28.80;39.19
74613;BME280;63119;51.788;8.824;2023-06-24T10:17:50;100893.06;;;28.26;39.75
74613;BME280;63119;51.788;8.824;2023-06-24T10:20:23;100898.81;;;27.95;39.64
74613;BME280;63119;51.788;8.824;2023-06-24T10:22:50;100889.38;;;28.40;39.80
74613;BME280;63119;51.788;8.824;2023-06-24T10:25:16;100892.44;;;28.51;39.93
74613;BME280;63119;51.788;8.824;2023-06-24T10:27:41;100891.19;;;28.82;39.66
74613;BME280;63119;51.788;8.824;2023-06-24T10:30:07;100885.91;;;29.14;39.40
74613;BME280;63119;51.788;8.824;2023-06-24T10:32:40;100884.09;;;29.28;38.46
74613;BME280;63119;51.788;8.824;2023-06-24T10:35:29;100874.13;;;29.48;38.97
74613;BME280;63119;51.788;8.824;2023-06-24T10:38:00;100878.75;;;29.48;37.74
74613;BME280;63119;51.788;8.824;2023-06-24T10:40:39;100874.72;;;28.96;38.92
74613;BME280;63119;51.788;8.824;2023-06-24T10:43:27;100870.38;;;29.08;38.53
74613;BME280;63119;51.788;8.824;2023-06-24T10:45:56;100868.38;;;29.23;38.10
74613;BME280;63119;51.788;8.824;2023-06-24T10:48:22;100869.88;;;29.33;38.25
74613;BME280;63119;51.788;8.824;2023-06-24T10:50:48;100871.53;;;29.27;37.77
74613;BME280;63119;51.788;8.824;2023-06-24T10:53:14;100867.63;;;28.67;37.97
74613;BME280;63119;51.788;8.824;2023-06-24T10:55:40;100867.13;;;28.57;39.21
74613;BME280;63119;51.788;8.824;2023-06-24T10:58:09;100864.59;;;28.56;39.30
74613;BME280;63119;51.788;8.824;2023-06-24T11:00:34;100864.69;;;28.41;39.14
74613;BME280;63119;51.788;8.824;2023-06-24T11:03:13;100863.41;;;28.37;40.18
74613;BME280;63119;51.788;8.824;2023-06-24T11:05:43;100858.97;;;28.64;40.07
74613;BME280;63119;51.788;8.824;2023-06-24T11:08:09;100853.94;;;28.33;40.35
74613;BME280;63119;51.788;8.824;2023-06-24T11:10:45;100847.59;;;28.82;40.55
74613;BME280;63119;51.788;8.824;2023-06-24T11:13:11;100845.84;;;28.67;39.47
74613;BME280;63119;51.788;8.824;2023-06-24T11:15:38;100848.63;;;28.81;38.80
74613;BME280;63119;51.788;8.824;2023-06-24T11:18:04;100852.38;;;28.45;38.32
74613;BME280;63119;51.788;8.824;2023-06-24T11:20:30;100851.53;;;28.45;37.89
74613;BME280;63119;51.788;8.824;2023-06-24T11:22:55;100848.38;;;28.41;38.70
74613;BME280;63119;51.788;8.824;2023-06-24T11:25:21;100843.94;;;28.40;39.40
74613;BME280;63119;51.788;8.824;2023-06-24T11:27:46;100847.44;;;28.06;40.02
74613;BME280;63119;51.788;8.824;2023-06-24T11:30:12;100837.03;;;27.32;40.43
74613;BME280;63119;51.788;8.824;2023-06-24T11:32:39;100844.09;;;26.68;41.43
74613;BME280;63119;51.788;8.824;2023-06-24T11:35:09;100837.47;;;26.85;41.56
74613;BME280;63119;51.788;8.824;2023-06-24T11:37:34;100846.59;;;27.63;42.03
74613;BME280;63119;51.788;8.824;2023-06-24T11:40:04;100835.34;;;28.37;41.23
74613;BME280;63119;51.788;8.824;2023-06-24T11:42:30;100843.50;;;28.37;41.25
74613;BME280;63119;51.788;8.824;2023-06-24T11:45:00;100838.44;;;28.61;41.84
74613;BME280;63119;51.788;8.824;2023-06-24T11:47:26;100831.72;;;28.64;40.43
74613;BME280;63119;51.788;8.824;2023-06-24T11:49:54;100829.97;;;28.50;40.53
74613;BME280;63119;51.788;8.824;2023-06-24T11:54:59;100814.06;;;28.19;39.51
74613;BME280;63119;51.788;8.824;2023-06-24T11:57:51;100812.97;;;28.69;37.90
74613;BME280;63119;51.788;8.824;2023-06-24T12:00:23;100815.16;;;28.93;37.38
74613;BME280;63119;51.788;8.824;2023-06-24T12:03:00;100803.28;;;29.07;36.41
74613;BME280;63119;51.788;8.824;2023-06-24T12:05:33;100808.84;;;29.40;38.14
74613;BME280;63119;51.788;8.824;2023-06-24T12:08:10;100801.91;;;29.38;36.78
74613;BME280;63119;51.788;8.824;2023-06-24T12:10:37;100804.81;;;28.76;38.42
74613;BME280;63119;51.788;8.824;2023-06-24T12:13:03;100802.34;;;28.87;40.23
74613;BME280;63119;51.788;8.824;2023-06-24T12:15:33;100795.31;;;29.12;38.95
74613;BME280;63119;51.788;8.824;2023-06-24T12:17:58;100793.81;;;29.03;38.17
74613;BME280;63119;51.788;8.824;2023-06-24T12:20:25;100794.53;;;28.71;37.46
74613;BME280;63119;51.788;8.824;2023-06-24T12:22:50;100794.41;;;28.51;38.35
74613;BME280;63119;51.788;8.824;2023-06-24T12:25:16;100798.22;;;28.29;38.29
74613;BME280;63119;51.788;8.824;2023-06-24T12:27:43;100796.91;;;27.97;39.99
74613;BME280;63119;51.788;8.824;2023-06-24T12:30:09;100791.03;;;27.73;40.49
74613;BME280;63119;51.788;8.824;2023-06-24T12:32:35;100791.56;;;27.61;41.76
74613;BME280;63119;51.788;8.824;2023-06-24T12:35:01;100783.63;;;28.09;40.70
74613;BME280;63119;51.788;8.824;2023-06-24T12:37:33;100788.81;;;28.32;39.88
74613;BME280;63119;51.788;8.824;2023-06-24T12:39:59;100777.13;;;28.38;38.49
74613;BME280;63119;51.788;8.824;2023-06-24T12:42:25;100768.88;;;28.59;38.57
74613;BME280;63119;51.788;8.824;2023-06-24T12:44:51;100775.56;;;28.97;39.25
74613;BME280;63119;51.788;8.824;2023-06-24T12:47:16;100780.47;;;29.15;38.63
74613;BME280;63119;51.788;8.824;2023-06-24T12:49:41;100774.81;;;28.69;37.85
74613;BME280;63119;51.788;8.824;2023-06-24T12:52:07;100770.50;;;28.94;38.73
74613;BME280;63119;51.788;8.824;2023-06-24T12:54:32;100766.97;;;28.94;38.63